Date,TemperatureHighF,TemperatureAvgF,TemperatureLowF,DewpointHighF,DewpointAvgF,DewpointLowF,HumidityHigh,HumidityAvg,HumidityLow,PressureMaxIn,PressureMinIn,WindSpeedMaxMPH,WindSpeedAvgMPH,GustSpeedMaxMPH,PrecipitationSumIn
2013-1-1,48.2,45.5,42.6,46.8,38.2,27.0,95,77,50,30.08,29.91,18,4,21,0.19
2013-1-2,49.1,43.4,37.8,45.6,36.8,29.9,96,79,58,30.16,29.90,11,3,13,0.09
2013-1-3,42.1,36.8,30.7,31.8,28.2,24.8,88,71,54,30.24,30.11,6,2,7,0.00
2013-1-4,54.7,37.4,26.2,24.6,20.4,16.9,76,53,23,30.29,30.17,14,4,15,0.00
2013-1-5,55.6,39.3,25.3,27.9,21.9,17.6,75,52,26,30.35,30.19,7,2,11,0.00
2013-1-6,57.0,43.8,37.4,37.2,32.6,26.4,84,66,43,30.20,30.02,12,2,13,0.01
2013-1-7,55.8,39.8,28.8,29.4,27.2,24.4,85,63,33,30.40,30.16,14,2,14,0.00
2013-1-8,57.9,42.4,27.0,41.3,33.7,24.4,91,72,50,30.43,30.34,9,2,9,0.00
2013-1-9,63.9,50.9,38.8,51.0,44.0,35.0,92,78,61,30.43,30.34,12,2,12,0.00
2013-1-10,62.2,51.9,43.3,48.3,38.9,28.1,92,65,29,30.51,30.38,7,1,8,0.00
2013-1-11,47.7,42.9,39.9,44.3,40.8,38.3,97,92,71,30.39,30.14,9,2,9,0.05
2013-1-12,65.7,54.9,45.1,59.3,51.2,42.4,98,88,73,30.16,30.08,7,2,8,0.01
2013-1-13,73.2,63.2,56.3,61.5,57.9,55.1,96,83,63,30.11,30.02,24,6,24,0.00
2013-1-14,63.9,61.1,51.4,62.4,58.9,50.1,97,92,83,30.17,30.05,19,4,19,0.59
2013-1-15,51.3,42.4,39.6,49.4,41.3,38.4,97,96,93,30.21,30.05,19,4,19,0.20
2013-1-16,49.6,43.4,38.1,48.0,42.3,37.3,97,96,94,30.06,29.92,9,2,9,0.46
2013-1-17,49.1,41.5,32.2,47.9,40.4,31.4,97,96,92,30.15,29.89,22,5,22,1.12
2013-1-18,55.6,38.4,24.4,40.0,27.5,20.3,98,69,26,30.48,30.13,8,1,8,0.31
2013-1-19,54.0,38.9,24.3,29.9,25.7,21.4,90,61,36,30.44,30.11,11,4,11,0.00
2013-1-20,65.1,46.7,33.4,35.2,28.2,23.9,74,51,23,30.12,29.98,14,4,14,0.00
2013-1-21,60.1,43.9,29.1,34.3,24.8,12.3,88,51,26,30.06,29.86,17,5,21,0.00
2013-1-22,40.5,30.6,22.6,13.9,1.3,-12.5,68,30,10,30.23,29.95,14,4,17,0.00
2013-1-23,44.8,29.5,16.7,16.7,10.5,1.4,68,46,28,30.31,30.00,14,3,16,0.00
2013-1-24,39.4,30.1,21.9,24.4,11.2,-2.8,79,47,22,30.45,29.93,21,6,21,0.00
2013-1-25,23.4,21.9,18.0,19.7,12.7,2.4,87,69,44,30.46,29.59,13,2,13,0.00
2013-1-26,44.2,30.1,21.7,43.2,26.0,19.7,96,85,62,30.57,30.05,6,1,6,0.06
2013-1-27,45.5,33.0,22.3,28.2,24.0,18.0,87,70,48,30.75,30.57,11,3,11,0.00
2013-1-28,47.8,38.0,32.9,37.0,31.3,26.3,91,78,60,30.65,30.47,13,6,14,0.02
2013-1-29,73.2,57.8,43.7,56.3,50.4,43.4,99,79,54,30.47,30.24,17,5,17,0.02
2013-1-30,71.1,65.3,57.0,63.3,59.8,54.9,95,83,65,30.24,29.61,28,14,31,0.73
2013-1-31,56.8,42.9,34.7,54.7,26.8,17.0,93,55,32,30.18,29.64,24,8,24,0.02
2013-2-1,39.6,31.9,20.8,26.9,10.5,-0.6,69,42,20,30.54,30.04,23,7,23,0.00
2013-2-2,40.6,30.0,17.1,30.7,13.7,7.9,88,53,28,30.55,30.21,16,4,17,0.00
2013-2-3,49.3,38.5,31.1,32.0,26.7,19.7,94,65,39,30.21,30.03,14,4,16,0.00
2013-2-4,49.5,37.4,26.6,26.2,21.5,16.3,72,54,32,30.32,30.17,12,4,12,0.00
2013-2-5,63.5,45.6,34.2,34.6,30.0,25.2,72,56,31,30.18,28.62,13,4,14,0.00
2013-2-6,63.0,45.9,32.0,36.7,26.1,15.7,87,52,16,30.46,30.16,11,2,13,0.00
2013-2-7,43.0,36.6,33.4,35.7,31.2,23.0,98,81,59,30.52,30.23,11,4,14,0.60
2013-2-8,61.0,43.0,34.3,46.6,34.7,25.8,98,75,40,30.26,30.04,22,6,22,0.09
2013-2-9,58.5,41.8,30.4,25.6,18.0,8.0,66,41,14,30.53,30.25,12,3,13,0.00
2013-2-10,55.4,40.7,27.0,38.0,22.1,14.1,86,51,24,30.65,30.36,13,3,13,0.11
2013-2-11,56.1,48.7,41.0,54.9,47.1,38.4,99,94,84,30.36,30.13,14,5,18,0.04
2013-2-12,62.2,50.3,39.9,49.1,30.7,20.1,91,49,20,30.29,30.13,11,3,14,0.00
2013-2-13,47.5,45.3,43.0,40.4,38.8,37.3,90,78,68,30.15,30.04,4,2,5,0.05
2013-2-14,57.0,41.5,28.9,33.3,30.2,26.1,89,67,35,30.25,30.04,14,3,14,0.00
2013-2-15,63.7,47.9,33.1,38.5,32.5,26.2,89,59,28,30.28,30.12,19,5,19,0.00
2013-2-16,41.4,35.0,28.0,33.4,26.9,13.2,92,73,48,30.18,30.02,15,4,15,0.04
2013-2-17,40.5,29.0,22.6,15.1,7.4,0.9,60,41,20,30.43,30.13,24,6,24,0.01
2013-2-18,55.9,37.8,20.5,24.5,16.7,6.8,63,44,23,30.55,30.37,16,5,16,0.00
2013-2-19,48.2,39.7,35.2,42.7,32.3,17.1,96,76,41,30.39,30.05,17,7,17,0.19
2013-2-20,55.4,41.0,27.3,19.2,12.2,-1.8,58,33,10,30.32,30.17,17,4,17,0.00
2013-2-21,60.8,41.0,23.5,26.1,14.4,1.6,73,38,10,30.45,30.30,9,2,9,0.00
2013-2-22,41.9,34.1,31.8,32.9,31.2,23.2,97,89,47,30.51,30.31,8,2,8,0.27
2013-2-23,45.9,38.4,33.3,42.0,37.0,32.5,98,95,85,30.34,30.02,10,2,10,0.17
2013-2-24,66.2,49.7,39.4,45.5,32.5,20.6,99,59,21,30.23,30.00,19,4,19,0.00
2013-2-25,43.5,36.7,31.8,25.1,23.0,20.8,73,58,44,30.40,30.24,11,3,11,0.00
2013-2-26,38.1,35.0,31.5,37.6,32.3,23.1,99,91,64,30.33,29.79,18,4,18,0.72
2013-2-27,58.5,46.5,36.7,41.2,37.2,33.9,99,73,42,29.98,29.83,17,5,17,0.00
2013-2-28,43.5,42.0,40.1,37.1,34.1,30.1,78,74,66,29.92,29.90,8,2,11,0.00
2013-3-1,46.9,40.0,32.2,30.1,26.7,22.5,69,59,48,30.12,30.04,13,3,13,0.00
2013-3-2,49.3,36.6,27.5,29.2,23.5,17.5,84,60,39,30.12,30.00,16,4,16,0.00
2013-3-3,46.6,34.5,26.1,22.4,17.4,12.3,65,50,33,30.17,30.06,16,6,16,0.00
2013-3-4,56.7,38.1,24.1,20.7,12.5,-0.2,66,39,10,30.30,30.16,16,4,16,0.00
2013-3-5,50.7,42.1,36.1,41.5,32.6,17.3,99,72,39,30.25,29.78,12,3,12,0.31
2013-3-6,50.7,39.4,32.4,38.7,28.7,22.1,98,67,42,30.28,29.77,28,8,28,0.12
2013-3-7,55.0,40.5,29.7,31.2,26.8,22.1,78,60,36,30.45,30.26,15,5,15,0.00
2013-3-8,57.7,41.2,25.9,28.8,23.2,18.4,83,53,23,30.50,30.38,18,4,18,0.00
2013-3-9,66.9,46.3,28.0,33.5,27.5,22.5,84,52,22,30.54,30.42,13,2,13,0.00
2013-3-10,70.9,53.3,35.2,38.5,31.2,26.3,77,45,24,30.50,30.37,13,3,13,0.00
2013-3-11,66.6,52.6,42.3,51.6,36.7,22.1,75,55,41,30.41,30.12,19,6,19,0.00
2013-3-12,69.1,57.6,43.2,57.3,46.6,29.4,97,71,29,30.17,29.95,15,6,15,0.70
2013-3-13,56.7,43.9,33.4,32.5,24.8,-5.4,77,49,27,30.35,30.17,18,6,18,0.00
2013-3-14,36.5,32.0,29.5,16.8,14.6,2.5,55,48,44,30.42,30.34,14,5,14,0.00
2013-3-15,63.9,48.1,29.8,36.4,26.9,16.5,65,45,31,30.37,30.09,22,6,22,0.00
2013-3-16,78.8,63.2,49.8,54.8,45.1,36.0,76,53,32,30.09,29.86,25,9,25,0.02
2013-3-17,58.3,49.2,38.1,51.0,44.1,36.5,97,83,72,30.35,30.05,16,5,16,0.00
2013-3-18,38.1,36.5,35.6,37.2,35.8,34.8,98,97,96,30.37,30.32,11,4,11,0.02
2013-3-19,67.1,48.9,34.5,44.3,27.7,5.0,99,57,13,30.24,30.01,20,5,20,0.00
2013-3-20,59.2,47.0,34.9,25.7,13.4,2.1,44,26,14,30.30,29.97,17,5,17,0.00
2013-3-21,45.5,37.2,30.4,26.8,19.5,11.3,61,49,33,30.04,29.96,16,6,16,0.00
2013-3-22,54.1,36.8,19.4,21.7,14.0,7.8,68,42,16,30.25,30.15,14,4,14,0.00
2013-3-23,47.7,39.8,34.7,27.2,22.6,19.5,67,50,36,30.25,30.17,6,1,6,0.00
2013-3-24,43.2,39.8,35.8,36.8,33.4,29.4,94,79,59,30.13,29.91,11,3,11,0.31
2013-3-25,48.6,38.5,32.5,37.7,28.3,21.4,99,70,40,30.02,29.75,17,5,17,0.04
2013-3-26,49.3,39.6,32.2,30.9,25.5,22.7,71,57,42,30.32,30.02,21,5,21,0.00
2013-3-27,52.2,39.9,31.1,27.1,23.4,19.4,75,53,30,30.44,30.32,22,5,22,0.00
2013-3-28,58.3,42.5,29.8,29.9,23.0,19.7,70,48,24,30.49,30.36,15,4,15,0.00
2013-3-29,63.0,47.1,30.0,33.2,24.5,19.5,70,44,19,30.52,30.36,13,3,13,0.00
2013-3-30,70.5,53.8,37.4,38.8,31.6,24.9,69,46,20,30.43,30.27,13,2,13,0.00
2013-3-31,67.1,55.0,48.2,57.2,50.2,39.4,98,85,62,30.28,30.00,14,4,14,0.40
2013-4-1,72.3,58.6,45.9,53.0,44.6,35.1,99,65,32,30.19,30.03,26,4,26,0.04
2013-4-2,64.8,49.0,33.8,35.3,26.0,11.0,78,46,14,30.35,30.19,16,3,16,0.00
2013-4-3,71.4,47.8,32.9,26.7,19.1,9.3,61,34,12,30.49,30.33,12,3,12,0.00
2013-4-4,46.6,39.0,34.3,35.0,26.4,12.8,98,65,28,30.54,30.16,19,5,19,0.61
2013-4-5,71.1,49.7,34.3,49.4,38.4,27.6,98,71,23,30.23,30.09,17,4,17,0.04
2013-4-6,57.9,44.5,37.6,35.7,32.8,30.2,79,65,37,30.45,30.23,12,2,12,0.00
2013-4-7,72.5,57.7,41.0,47.8,41.5,33.0,81,57,35,30.44,30.29,19,6,19,0.11
2013-4-8,79.9,66.4,54.5,59.8,52.8,45.2,90,64,41,30.36,30.24,21,7,21,0.02
2013-4-9,86.7,71.6,57.2,60.6,55.3,50.2,86,59,35,30.39,30.26,17,5,17,0.00
2013-4-10,88.2,74.9,62.4,63.7,58.5,55.3,79,58,36,30.31,30.16,15,6,15,0.01
2013-4-11,70.5,68.6,65.8,58.7,58.2,57.3,74,69,64,30.17,30.15,12,7,12,0.00
2013-4-12,83.7,71.3,59.9,67.4,58.2,39.1,99,67,34,30.01,29.82,23,8,23,0.84
2013-4-13,59.9,58.0,56.1,42.2,41.5,41.0,58,54,51,30.04,30.01,7,2,7,0.00
2013-4-14,81.3,66.2,46.8,52.9,40.4,33.7,74,42,21,30.31,30.21,14,4,14,0.00
2013-4-15,71.8,60.2,54.9,59.3,56.0,53.9,98,87,64,30.41,30.23,8,3,8,0.20
2013-4-16,82.4,67.7,54.9,65.8,59.4,54.0,98,77,49,30.50,30.38,12,3,12,0.00
2013-4-17,86.4,70.8,59.7,64.9,60.0,56.6,91,71,39,30.42,30.32,9,2,9,0.00
2013-4-18,81.3,71.4,64.0,66.1,61.0,56.6,88,71,46,30.39,30.21,20,6,20,0.00
2013-4-19,77.5,68.4,57.4,68.9,63.7,49.0,97,85,71,30.22,29.92,26,10,27,0.31
2013-4-20,70.2,54.3,42.1,48.8,35.5,28.4,76,52,24,30.47,30.07,17,4,17,0.00
2013-4-21,65.8,50.4,39.0,41.5,36.1,31.3,85,60,36,30.68,30.47,18,4,18,0.00
2013-4-22,67.1,51.5,36.3,41.1,34.8,24.5,95,58,23,30.65,30.45,18,5,18,0.00
2013-4-23,74.3,57.7,46.0,54.9,47.3,39.9,92,70,44,30.48,30.30,14,4,14,0.00
2013-4-24,55.2,54.4,53.8,51.8,51.4,50.9,91,90,87,30.33,30.29,11,4,11,0.00
2013-4-25,77.0,59.8,47.5,57.9,39.8,22.4,79,51,14,30.49,30.22,12,4,12,0.00
2013-4-26,75.4,57.2,38.7,45.2,37.5,31.6,83,52,21,30.63,30.49,11,2,11,0.00
2013-4-27,70.7,60.8,54.9,54.8,49.4,43.1,91,67,51,30.55,30.46,8,2,8,0.00
2013-4-28,58.1,55.2,52.9,55.8,53.5,51.9,99,94,83,30.46,30.25,12,3,12,1.11
2013-4-29,74.7,60.1,54.0,65.4,57.8,53.7,99,93,69,30.26,30.17,8,2,8,0.27
2013-4-30,72.0,57.1,0.0,62.0,57.5,53.4,99,83,65,30.47,30.22,10,2,10,0.00
2013-5-1,66.9,59.3,53.6,59.5,56.5,53.3,99,91,75,30.52,30.38,17,4,17,0.00
2013-5-2,63.9,53.4,1.0,56.9,48.6,-2.6,91,84,78,30.54,30.46,24,5,24,0.00
2013-5-3,63.9,25.0,0.0,56.9,52.1,51.2,99,42,78,30.47,30.36,4,1,4,0.00
2013-5-4,63.9,47.7,0.0,53.1,49.1,44.5,99,70,56,30.40,30.27,17,5,17,0.01
2013-5-5,59.2,52.2,0.0,52.9,48.3,20.7,95,86,23,30.34,30.18,18,6,19,0.14
2013-5-6,72.3,58.7,54.1,63.3,56.2,52.6,96,92,64,30.21,30.06,16,4,16,1.36
2013-5-7,71.4,60.7,54.3,58.1,54.4,48.3,97,82,46,30.15,30.08,13,3,13,0.26
2013-5-8,70.5,59.0,51.1,59.6,54.6,50.0,97,86,66,30.24,30.15,10,2,10,0.24
2013-5-9,86.5,67.5,51.3,60.9,55.5,50.4,98,70,34,30.31,30.22,13,2,13,0.00
2013-5-10,85.5,72.7,56.5,65.3,58.8,53.0,89,64,42,30.31,30.17,14,3,14,0.00
2013-5-11,84.4,73.1,64.0,64.1,61.1,59.2,90,67,47,30.20,30.04,9,4,9,0.11
2013-5-12,65.8,54.6,45.5,39.7,34.7,20.7,73,50,23,30.42,30.28,9,2,9,0.25
2013-5-13,70.7,53.6,38.3,43.8,34.5,23.4,91,54,20,30.50,30.35,12,2,12,0.00
2013-5-14,75.2,57.3,37.2,47.6,39.4,33.3,91,55,27,30.56,30.36,12,3,12,0.00
2013-5-15,91.4,72.6,55.8,65.8,56.0,43.7,74,57,38,30.36,30.14,14,5,14,0.00
2013-5-16,88.5,75.2,62.8,62.8,58.8,54.3,77,58,36,30.25,30.16,13,2,13,0.00
2013-5-17,90.0,74.8,59.2,64.2,59.9,54.7,87,62,35,30.34,30.24,10,2,10,0.00
2013-5-18,69.3,63.5,61.9,64.9,61.3,60.0,95,93,85,30.39,30.32,5,1,5,0.04
2013-5-19,79.5,69.1,64.0,69.7,65.2,61.2,95,88,70,30.39,30.29,10,4,10,0.06
2013-5-20,84.4,71.7,66.0,71.5,67.7,64.9,98,88,59,30.36,30.27,11,3,11,0.40
2013-5-21,93.7,76.7,66.4,73.8,69.2,63.4,99,80,39,30.31,30.18,13,3,13,0.01
2013-5-22,88.3,75.4,64.8,71.8,67.0,63.0,95,77,55,30.27,30.14,15,5,15,0.44
2013-5-23,84.6,70.3,62.4,70.4,65.5,60.5,99,86,59,30.21,30.08,8,3,8,0.18
2013-5-24,71.1,62.4,58.1,61.5,59.0,50.6,97,90,54,30.24,30.09,17,2,17,0.00
2013-5-29,80.6,63.1,51.6,46.6,38.9,31.6,65,44,19,30.46,30.38,17,2,17,0.00
2013-5-30,80.4,63.5,52.0,52.9,47.5,39.0,91,59,30,30.52,30.41,8,2,8,0.00
2013-5-31,85.5,70.1,51.3,60.9,55.6,49.2,94,63,40,30.53,30.39,13,3,13,0.00
2013-6-1,88.0,75.5,62.8,69.1,63.9,60.4,93,69,44,30.48,30.39,12,5,12,0.00
2013-6-2,84.7,74.5,62.2,72.5,66.4,58.5,98,77,52,30.48,30.16,16,4,16,0.58
2013-6-3,89.1,72.6,62.2,71.9,67.1,58.5,99,84,52,30.59,30.14,14,3,14,1.68
2013-6-4,79.9,68.1,61.5,66.1,63.1,60.1,99,85,58,30.45,30.31,11,2,11,0.00
2013-6-5,77.9,67.5,60.8,67.9,63.6,59.7,99,88,67,30.49,30.37,10,2,10,0.11
2013-6-6,74.5,69.2,64.4,72.7,68.1,63.4,99,96,92,30.38,30.17,12,4,12,1.03
2013-6-7,79.7,70.0,67.5,72.4,68.7,66.9,99,96,75,30.20,29.98,11,2,11,0.35
2013-6-8,89.1,73.8,61.0,69.2,65.3,60.1,99,78,41,30.36,30.18,17,2,17,0.45
2013-6-9,91.6,76.8,65.8,74.1,68.9,65.3,99,79,46,30.43,30.32,14,3,14,0.04
2013-6-10,86.0,74.0,68.4,76.3,70.2,65.2,97,88,52,30.52,30.17,18,6,18,0.42
2013-6-11,69.1,68.4,68.0,67.9,67.4,67.0,98,97,95,30.24,30.20,17,5,17,0.00
2013-6-12,97.5,81.1,63.9,77.5,70.1,61.7,94,71,49,30.29,30.18,8,3,8,0.00
2013-6-13,95.5,81.1,68.0,74.0,71.3,62.1,95,75,44,30.18,29.93,14,4,14,0.11
2013-6-14,84.6,72.8,59.2,65.3,58.2,54.4,89,62,41,30.33,30.10,17,3,17,0.00
2013-6-15,88.7,76.8,57.4,64.5,60.2,55.4,94,61,38,30.43,30.33,9,2,9,0.00
2013-6-16,88.3,70.6,0.0,61.7,61.7,61.7,41,33,41,30.38,30.38,4,3,4,0.00
2013-6-24,83.1,70.9,63.9,73.5,68.8,63.6,99,93,69,30.23,30.10,8,2,8,0.13
2013-6-25,84.9,72.1,61.7,69.9,65.6,61.4,99,82,54,30.44,30.21,7,2,7,0.01
2013-6-26,82.0,80.1,77.9,68.3,67.4,66.1,70,65,61,30.54,30.53,7,4,7,0.00
2013-6-28,81.3,79.0,76.8,70.3,69.2,67.8,76,72,68,30.52,30.51,6,4,6,0.00
2013-6-29,87.4,86.7,86.5,71.8,71.4,71.0,61,60,60,30.48,30.48,3,3,3,0.00
2013-6-30,93.2,84.5,77.0,87.5,73.8,70.9,98,71,54,30.51,30.06,11,4,11,0.77
2013-7-14,95.2,82.2,70.7,76.9,73.2,70.0,99,77,47,30.49,30.40,6,2,6,0.00
2013-7-15,94.1,85.4,73.9,79.5,76.3,73.6,99,76,54,30.46,30.35,8,4,8,0.01
2013-7-17,88.3,72.5,69.4,77.7,70.9,69.1,99,96,71,30.24,30.18,7,2,7,0.08
2013-7-18,81.0,71.6,67.6,71.7,68.3,66.5,99,90,67,30.38,30.23,9,3,9,0.01
2013-7-19,82.4,75.4,68.5,74.8,71.9,68.2,99,89,75,30.44,30.37,8,3,8,0.00
2013-7-20,92.7,89.0,84.0,79.7,75.0,71.4,76,64,53,30.59,30.29,11,4,11,0.04
2013-8-6,92.5,82.9,71.1,80.1,75.9,70.8,99,81,61,30.35,30.28,5,2,5,0.01
2013-8-7,91.8,77.1,63.5,70.7,65.9,60.5,99,72,38,30.41,30.30,9,2,9,0.02
2013-8-8,89.4,74.9,61.2,72.6,67.0,60.9,99,79,49,30.46,30.35,6,2,6,0.00
2013-8-9,86.2,75.7,69.4,74.4,71.6,69.1,99,88,61,30.38,30.19,6,2,6,0.07
2013-8-10,94.5,78.4,69.8,77.5,73.1,69.5,99,85,50,30.19,30.10,7,2,7,0.02
2013-8-11,86.7,74.1,66.4,73.2,69.1,66.1,99,86,56,30.27,30.16,7,2,7,0.00
2013-8-12,96.8,83.7,70.2,74.9,72.1,67.5,99,71,41,30.27,30.18,18,2,18,0.87
2013-8-13,71.1,70.7,70.2,70.8,70.4,69.7,99,99,99,30.27,30.16,4,1,4,0.00